createdAt,value
2018-03-07T00:02:15.689Z,42.17
2018-03-07T00:04:43.547Z,41.80
2018-03-07T00:07:11.453Z,38.77
2018-03-07T00:09:39.309Z,40.10
2018-03-07T00:12:07.253Z,41.33
2018-03-07T00:14:35.220Z,41.17
2018-03-07T00:17:03.114Z,38.80
2018-03-07T00:19:31.051Z,42.70
2018-03-07T00:21:58.972Z,40.70
2018-03-07T00:24:26.940Z,40.60
2018-03-07T00:26:54.801Z,41.90
2018-03-07T00:29:22.675Z,40.50
2018-03-07T00:31:50.593Z,40.77
2018-03-07T00:34:18.597Z,44.57
2018-03-07T00:36:46.532Z,42.90
2018-03-07T00:39:14.498Z,40.83
2018-03-07T00:41:42.394Z,43.20
2018-03-07T00:44:10.276Z,42.90
2018-03-07T00:46:38.164Z,41.80
2018-03-07T00:49:06.195Z,40.50
2018-03-07T00:51:34.168Z,42.23
2018-03-07T00:54:02.047Z,43.03
2018-03-07T00:56:29.919Z,40.23
2018-03-07T00:58:57.821Z,42.47
2018-03-07T01:01:25.714Z,42.47
2018-03-07T01:03:53.632Z,42.50
2018-03-07T01:06:21.513Z,42.80
2018-03-07T01:08:49.388Z,42.80
2018-03-07T01:11:17.249Z,40.97
2018-03-07T01:13:45.121Z,42.17
2018-03-07T01:16:12.960Z,44.03
2018-03-07T01:18:41.436Z,44.80
2018-03-07T01:21:09.392Z,46.80
2018-03-07T01:23:37.340Z,44.57
2018-03-07T01:26:05.254Z,47.00
2018-03-07T01:28:33.273Z,47.83
2018-03-07T01:31:01.173Z,44.90
2018-03-07T01:33:29.032Z,47.00
2018-03-07T01:35:56.949Z,44.13
2018-03-07T01:38:24.845Z,43.90
2018-03-07T01:40:52.760Z,46.70
2018-03-07T01:43:20.939Z,44.23
2018-03-07T01:45:48.989Z,42.23
2018-03-07T01:48:16.889Z,44.50
2018-03-07T01:50:45.124Z,43.60
2018-03-07T01:53:12.978Z,45.90
2018-03-07T01:55:40.842Z,45.70
2018-03-07T01:58:08.749Z,46.90
2018-03-07T02:00:36.609Z,42.67
2018-03-07T02:03:04.496Z,46.73
2018-03-07T02:05:32.504Z,47.23
2018-03-07T02:08:00.405Z,48.03
2018-03-07T02:10:28.276Z,47.50
2018-03-07T02:12:56.163Z,46.90
2018-03-07T02:15:24.036Z,48.10
2018-03-07T02:17:51.918Z,45.37
2018-03-07T02:20:19.819Z,47.47
2018-03-07T02:22:47.704Z,49.00
2018-03-07T02:25:15.558Z,45.83
2018-03-07T02:27:43.457Z,45.57
2018-03-07T02:30:11.377Z,44.60
2018-03-07T02:32:39.595Z,45.93
2018-03-07T02:35:07.496Z,46.83
2018-03-07T02:37:35.411Z,45.80
2018-03-07T02:40:04.113Z,41.27
2018-03-07T02:42:32.009Z,42.93
2018-03-07T02:44:59.859Z,43.33
2018-03-07T02:47:27.745Z,42.77
2018-03-07T02:49:55.625Z,44.30
2018-03-07T02:52:23.490Z,41.07
2018-03-07T02:54:51.364Z,44.00
2018-03-07T02:57:19.249Z,38.73
2018-03-07T02:59:47.119Z,41.73
2018-03-07T03:02:14.991Z,43.70
2018-03-07T03:04:42.929Z,42.90
2018-03-07T03:07:10.789Z,44.83
2018-03-07T03:09:38.676Z,43.07
2018-03-07T03:12:06.585Z,41.97
2018-03-07T03:14:34.502Z,42.30
2018-03-07T03:17:02.356Z,42.47
2018-03-07T03:19:30.292Z,45.97
2018-03-07T03:21:58.205Z,45.43
2018-03-07T03:24:26.123Z,43.37
2018-03-07T03:26:54.026Z,44.60
2018-03-07T03:29:21.884Z,44.17
2018-03-07T03:31:49.707Z,44.63
2018-03-07T03:34:17.643Z,43.07
2018-03-07T03:36:45.597Z,45.40
2018-03-07T03:39:13.761Z,41.73
2018-03-07T03:41:41.646Z,43.60
2018-03-07T03:44:09.527Z,41.83
2018-03-07T03:46:37.380Z,40.27
2018-03-07T03:49:05.262Z,42.13
2018-03-07T03:51:33.472Z,42.33
2018-03-07T03:54:01.324Z,44.50
2018-03-07T03:56:29.189Z,45.13
2018-03-07T03:58:57.032Z,44.90
2018-03-07T04:01:24.860Z,43.87
2018-03-07T04:03:52.755Z,43.37
2018-03-07T04:06:20.634Z,41.17
2018-03-07T04:08:48.535Z,43.37
2018-03-07T04:11:16.400Z,44.17
2018-03-07T04:13:44.235Z,41.00
2018-03-07T04:16:12.132Z,45.93
2018-03-07T04:18:40.006Z,46.60
2018-03-07T04:21:07.910Z,40.80
2018-03-07T04:23:35.825Z,42.70
2018-03-07T04:26:03.783Z,44.47
2018-03-07T04:28:31.632Z,43.07
2018-03-07T04:30:59.589Z,42.63
2018-03-07T04:33:27.503Z,44.60
2018-03-07T04:35:55.400Z,42.77
2018-03-07T04:38:23.323Z,42.73
2018-03-07T04:40:51.176Z,42.40
2018-03-07T04:43:19.044Z,42.33
2018-03-07T04:45:46.952Z,45.20
2018-03-07T04:48:14.848Z,41.03
2018-03-07T04:50:42.760Z,44.00
2018-03-07T04:53:10.628Z,42.20
2018-03-07T04:55:38.509Z,42.67
2018-03-07T04:58:06.386Z,42.30
2018-03-07T05:00:34.328Z,45.47
2018-03-07T05:03:02.312Z,41.97
2018-03-07T05:05:30.144Z,45.37
2018-03-07T05:07:57.988Z,43.97
2018-03-07T05:10:25.983Z,46.50
2018-03-07T05:12:53.839Z,51.37
2018-03-07T05:15:21.712Z,46.67
2018-03-07T05:17:49.580Z,42.40
2018-03-07T05:20:17.495Z,42.83
2018-03-07T05:22:45.432Z,45.50
2018-03-07T05:25:13.280Z,44.73
2018-03-07T05:27:41.564Z,47.13
2018-03-07T05:30:09.423Z,46.13
2018-03-07T05:32:37.371Z,49.20
2018-03-07T05:35:05.282Z,47.40
2018-03-07T05:37:33.243Z,48.43
2018-03-07T05:40:01.132Z,49.80
2018-03-07T05:42:28.998Z,47.57
2018-03-07T05:44:56.860Z,45.10
2018-03-07T05:47:24.728Z,44.80
2018-03-07T05:49:52.588Z,46.77
2018-03-07T05:52:20.623Z,48.40
2018-03-07T05:54:48.488Z,47.90
2018-03-07T05:57:16.327Z,45.73
2018-03-07T05:59:44.188Z,40.23
2018-03-07T06:02:12.057Z,43.37
2018-03-07T06:04:39.969Z,43.47
2018-03-07T06:07:07.839Z,55.93
2018-03-07T06:09:35.692Z,41.80
2018-03-07T06:12:03.571Z,49.00
2018-03-07T06:14:31.418Z,42.50
2018-03-07T06:16:59.291Z,45.67
2018-03-07T06:19:27.149Z,42.63
2018-03-07T06:21:55.043Z,45.47
2018-03-07T06:24:22.908Z,45.30
2018-03-07T06:26:50.746Z,46.00
2018-03-07T06:29:18.694Z,44.70
2018-03-07T06:31:46.548Z,48.57
2018-03-07T06:34:14.420Z,49.20
2018-03-07T06:36:42.313Z,49.93
2018-03-07T06:39:10.184Z,51.13
2018-03-07T06:41:38.044Z,47.40
2018-03-07T06:44:05.916Z,47.17
2018-03-07T06:46:33.780Z,45.73
2018-03-07T06:49:01.678Z,44.67
2018-03-07T06:51:29.612Z,47.07
2018-03-07T06:53:57.580Z,53.07
2018-03-07T06:56:25.488Z,46.57
2018-03-07T06:58:53.373Z,47.60
2018-03-07T07:01:21.246Z,49.23
2018-03-07T07:03:49.616Z,48.80
2018-03-07T07:06:17.617Z,48.73
2018-03-07T07:08:45.449Z,50.03
2018-03-07T07:11:13.299Z,49.03
2018-03-07T07:13:41.166Z,47.03
2018-03-07T07:16:09.054Z,48.73
2018-03-07T07:18:36.944Z,49.70
2018-03-07T07:21:04.870Z,49.73
2018-03-07T07:23:34.248Z,49.73
2018-03-07T07:26:02.247Z,48.60
2018-03-07T07:28:30.197Z,49.13
2018-03-07T07:30:58.048Z,51.10
2018-03-07T07:33:26.970Z,51.93
2018-03-07T07:35:54.845Z,54.53
2018-03-07T07:38:22.732Z,53.83
2018-03-07T07:40:50.639Z,55.67
2018-03-07T07:43:18.541Z,55.60
2018-03-07T07:45:46.403Z,52.00
2018-03-07T07:48:14.248Z,50.53
2018-03-07T07:50:42.190Z,51.33
2018-03-07T07:53:10.037Z,49.63
2018-03-07T07:55:37.900Z,48.37
2018-03-07T07:58:05.816Z,51.50
2018-03-07T08:00:33.718Z,52.70
2018-03-07T08:03:01.580Z,54.10
2018-03-07T08:05:29.495Z,50.90
2018-03-07T08:07:57.415Z,50.10
2018-03-07T08:10:25.755Z,51.20
2018-03-07T08:12:53.697Z,49.40
2018-03-07T08:15:21.643Z,49.67
2018-03-07T08:17:49.588Z,52.63
2018-03-07T08:20:17.496Z,50.27
2018-03-07T08:22:45.381Z,51.10
2018-03-07T08:25:13.240Z,52.53
2018-03-07T08:27:41.226Z,50.83
2018-03-07T08:30:09.130Z,49.00
2018-03-07T08:32:37.048Z,48.90
2018-03-07T08:35:05.011Z,52.07
2018-03-07T08:37:33.203Z,51.40
2018-03-07T08:40:01.056Z,52.40
2018-03-07T08:42:28.922Z,49.87
2018-03-07T08:44:56.761Z,50.67
2018-03-07T08:47:24.613Z,49.17
2018-03-07T08:49:52.495Z,48.30
2018-03-07T08:52:20.377Z,46.30
2018-03-07T08:54:48.310Z,46.57
2018-03-07T08:57:16.184Z,44.57
2018-03-07T08:59:44.030Z,46.50
2018-03-07T09:02:11.893Z,45.80
2018-03-07T09:04:39.791Z,44.93
2018-03-07T09:07:07.772Z,44.33
2018-03-07T09:09:35.703Z,43.30
2018-03-07T09:12:03.644Z,45.50
2018-03-07T09:14:31.623Z,44.87
2018-03-07T09:16:59.781Z,44.80
2018-03-07T09:19:27.689Z,44.30
2018-03-07T09:21:55.544Z,44.07
2018-03-07T09:24:23.414Z,45.70
2018-03-07T09:26:52.012Z,39.70
2018-03-07T09:29:19.882Z,39.07
2018-03-07T09:31:48.541Z,42.77
2018-03-07T09:34:16.422Z,38.87
2018-03-07T09:36:44.284Z,33.73
2018-03-07T09:39:12.177Z,40.97
2018-03-07T09:41:40.095Z,37.20
2018-03-07T09:44:08.037Z,39.00
2018-03-07T09:46:35.924Z,38.13
2018-03-07T09:49:03.845Z,35.47
2018-03-07T09:51:31.737Z,36.10
2018-03-07T09:53:59.603Z,35.00
2018-03-07T09:56:27.562Z,31.57
2018-03-07T09:58:55.368Z,33.43
2018-03-07T10:01:23.260Z,34.27
2018-03-07T10:03:51.104Z,33.10
2018-03-07T10:06:18.971Z,32.67
2018-03-07T10:08:46.828Z,31.87
2018-03-07T10:11:14.750Z,33.03
2018-03-07T10:13:42.643Z,31.17
2018-03-07T10:16:10.513Z,29.63
2018-03-07T10:18:38.405Z,30.70
2018-03-07T10:21:06.299Z,29.27
2018-03-07T10:23:36.274Z,30.00
2018-03-07T10:26:04.282Z,29.37
2018-03-07T10:28:32.297Z,27.17
2018-03-07T10:31:00.279Z,29.00
2018-03-07T10:33:28.200Z,27.27
2018-03-07T10:35:56.152Z,25.60
2018-03-07T10:38:24.098Z,28.70
2018-03-07T10:40:52.852Z,25.87
2018-03-07T10:43:21.023Z,29.53
2018-03-07T10:45:48.903Z,26.80
2018-03-07T10:48:16.803Z,27.87
2018-03-07T10:50:44.684Z,28.50
2018-03-07T10:53:12.577Z,26.67
2018-03-07T10:55:40.473Z,30.63
2018-03-07T10:58:08.353Z,29.97
2018-03-07T11:00:38.149Z,27.93
2018-03-07T11:03:06.139Z,25.63
2018-03-07T11:05:34.217Z,31.83
2018-03-07T11:08:02.265Z,26.23
2018-03-07T11:10:30.113Z,27.83
2018-03-07T11:12:58.006Z,27.73
2018-03-07T11:15:25.851Z,27.40
2018-03-07T11:17:53.730Z,25.97
2018-03-07T11:20:21.698Z,26.40
2018-03-07T11:22:49.793Z,25.13
2018-03-07T11:25:17.680Z,26.53
2018-03-07T11:27:45.527Z,26.13
2018-03-07T11:30:13.405Z,25.07
2018-03-07T11:32:41.472Z,26.90
2018-03-07T11:35:09.354Z,25.10
2018-03-07T11:37:37.292Z,24.13
2018-03-07T11:40:05.177Z,25.47
2018-03-07T11:42:33.114Z,26.53
2018-03-07T11:45:01.003Z,22.93
2018-03-07T11:47:28.924Z,24.03
2018-03-07T11:49:56.809Z,24.67
2018-03-07T11:52:24.689Z,28.13
2018-03-07T11:54:52.639Z,23.30
2018-03-07T11:57:20.511Z,25.77
2018-03-07T11:59:48.428Z,24.93
2018-03-07T12:02:16.272Z,26.57
2018-03-07T12:04:44.152Z,29.63
2018-03-07T12:07:12.138Z,25.17
2018-03-07T12:09:39.999Z,30.23
2018-03-07T12:12:07.950Z,25.13
2018-03-07T12:14:35.846Z,25.97
2018-03-07T12:17:03.811Z,26.47
2018-03-07T12:19:31.688Z,27.00
2018-03-07T12:21:59.576Z,27.37
2018-03-07T12:24:27.432Z,26.10
2018-03-07T12:26:55.352Z,26.83
2018-03-07T12:29:23.275Z,26.90
2018-03-07T12:31:51.261Z,26.50
2018-03-07T12:34:21.327Z,27.00
2018-03-07T12:36:49.176Z,27.27
2018-03-07T12:39:17.019Z,27.73
2018-03-07T12:41:45.809Z,27.33
2018-03-07T12:44:13.735Z,31.43
2018-03-07T12:46:41.608Z,30.10
2018-03-07T12:49:09.489Z,30.97
2018-03-07T12:51:37.327Z,37.53
2018-03-07T12:54:05.192Z,35.10
2018-03-07T12:56:33.193Z,32.60
2018-03-07T12:59:01.101Z,33.27
2018-03-07T13:01:29.962Z,33.90
2018-03-07T13:03:57.837Z,34.67
2018-03-07T13:06:25.703Z,39.57
2018-03-07T13:08:53.593Z,39.90
2018-03-07T13:11:21.508Z,39.90
2018-03-07T13:13:49.417Z,40.10
2018-03-07T13:16:17.268Z,39.20
2018-03-07T13:18:45.270Z,39.87
2018-03-07T13:21:13.151Z,37.80
2018-03-07T13:23:41.029Z,36.50
2018-03-07T13:26:08.992Z,42.03
2018-03-07T13:28:36.898Z,48.47
2018-03-07T13:31:04.787Z,45.80
2018-03-07T13:33:33.186Z,39.73
2018-03-07T13:36:01.093Z,41.53
2018-03-07T13:38:29.133Z,48.40
2018-03-07T13:40:57.128Z,41.03
2018-03-07T13:43:24.976Z,43.57
2018-03-07T13:45:52.899Z,40.80
2018-03-07T13:48:20.794Z,42.80
2018-03-07T13:50:48.669Z,47.40
2018-03-07T13:53:16.716Z,38.37
2018-03-07T13:55:44.952Z,38.27
2018-03-07T13:58:13.269Z,40.50
2018-03-07T14:00:41.154Z,40.43
2018-03-07T14:03:10.048Z,36.43
2018-03-07T14:05:37.921Z,42.80
2018-03-07T14:08:05.804Z,38.83
2018-03-07T14:10:33.672Z,42.20
2018-03-07T14:13:01.984Z,37.13
2018-03-07T14:15:29.848Z,41.60
2018-03-07T14:17:57.747Z,38.67
2018-03-07T14:20:25.619Z,39.27
2018-03-07T14:22:53.584Z,36.87
2018-03-07T14:25:21.501Z,38.60
2018-03-07T14:27:49.397Z,38.10
2018-03-07T14:30:17.779Z,38.50
2018-03-07T14:32:45.692Z,41.33
2018-03-07T14:35:13.544Z,40.20
2018-03-07T14:37:41.447Z,36.80
2018-03-07T14:40:09.393Z,38.83
2018-03-07T14:42:37.284Z,40.97
2018-03-07T14:45:05.144Z,40.40
2018-03-07T14:47:33.096Z,37.40
2018-03-07T14:50:00.943Z,39.77
2018-03-07T14:52:28.824Z,36.77
2018-03-07T14:54:56.744Z,37.90
2018-03-07T14:57:24.579Z,39.47
2018-03-07T14:59:52.575Z,37.17
2018-03-07T15:02:21.032Z,39.77
2018-03-07T15:04:48.888Z,38.13
2018-03-07T15:07:16.788Z,36.20
2018-03-07T15:09:44.682Z,39.57
2018-03-07T15:12:12.577Z,41.33
2018-03-07T15:14:40.508Z,38.83
2018-03-07T15:17:08.385Z,36.80
2018-03-07T15:19:36.369Z,37.27
2018-03-07T15:22:04.268Z,38.93
2018-03-07T15:24:32.146Z,37.10
2018-03-07T15:26:59.992Z,37.73
2018-03-07T15:29:27.865Z,39.80
2018-03-07T15:31:55.767Z,37.03
2018-03-07T15:34:23.630Z,38.47
2018-03-07T15:36:51.504Z,37.73
2018-03-07T15:39:19.383Z,41.70
2018-03-07T15:41:47.239Z,40.77
2018-03-07T15:44:15.121Z,38.63
2018-03-07T15:46:42.995Z,40.83
2018-03-07T15:49:10.843Z,37.77
2018-03-07T15:51:38.724Z,35.57
2018-03-07T15:54:06.617Z,37.83
2018-03-07T15:56:34.491Z,36.60
2018-03-07T15:59:02.410Z,34.93
2018-03-07T16:01:30.296Z,36.93
2018-03-07T16:03:58.153Z,38.67
2018-03-07T16:06:26.043Z,35.47
2018-03-07T16:08:53.907Z,36.33
2018-03-07T16:11:21.832Z,36.57
2018-03-07T16:13:49.801Z,36.87
2018-03-07T16:16:17.659Z,34.37
2018-03-07T16:18:45.508Z,37.37
2018-03-07T16:21:13.374Z,40.00
2018-03-07T16:23:41.289Z,35.47
2018-03-07T16:26:09.160Z,35.10
2018-03-07T16:28:38.689Z,33.50
2018-03-07T16:31:07.251Z,36.30
2018-03-07T16:33:35.119Z,38.03
2018-03-07T16:36:03.026Z,37.40
2018-03-07T16:38:30.911Z,37.87
2018-03-07T16:40:58.771Z,37.03
2018-03-07T16:43:26.660Z,39.10
2018-03-07T16:45:54.628Z,60.50
2018-03-07T16:48:22.480Z,40.53
2018-03-07T16:50:50.372Z,38.20
2018-03-07T16:53:18.223Z,42.20
2018-03-07T16:55:46.108Z,36.53
2018-03-07T16:58:14.027Z,36.10
2018-03-07T17:00:41.863Z,39.70
2018-03-07T17:03:09.727Z,36.67
2018-03-07T17:05:37.669Z,36.10
2018-03-07T17:08:05.616Z,36.97
2018-03-07T17:10:33.638Z,34.30
2018-03-07T17:13:01.636Z,37.70
2018-03-07T17:15:29.563Z,43.23
2018-03-07T17:17:57.428Z,40.57
2018-03-07T17:20:25.296Z,43.17
2018-03-07T17:22:53.127Z,39.60
2018-03-07T17:25:20.993Z,40.07
2018-03-07T17:27:48.881Z,41.90
2018-03-07T17:30:16.779Z,41.17
2018-03-07T17:32:44.634Z,40.50
2018-03-07T17:35:12.497Z,41.50
2018-03-07T17:37:40.398Z,39.20
2018-03-07T17:40:09.205Z,38.63
2018-03-07T17:42:37.148Z,42.83
2018-03-07T17:45:05.088Z,40.50
2018-03-07T17:47:32.943Z,39.43
2018-03-07T17:50:00.828Z,37.73
2018-03-07T17:52:28.805Z,39.60
2018-03-07T17:54:56.688Z,38.47
2018-03-07T17:57:24.577Z,38.03
2018-03-07T17:59:52.415Z,37.10
2018-03-07T18:02:20.271Z,38.43
2018-03-07T18:04:48.171Z,40.67
2018-03-07T18:07:16.009Z,36.83
2018-03-07T18:09:43.935Z,38.50
2018-03-07T18:12:12.780Z,35.53
2018-03-07T18:14:40.646Z,38.07
2018-03-07T18:17:08.496Z,38.07
2018-03-07T18:19:36.408Z,36.50
2018-03-07T18:22:04.301Z,39.97
2018-03-07T18:24:32.157Z,35.40
2018-03-07T18:27:00.137Z,39.43
2018-03-07T18:29:28.064Z,36.40
2018-03-07T18:31:55.943Z,37.70
2018-03-07T18:34:23.912Z,43.30
2018-03-07T18:36:51.784Z,40.90
2018-03-07T18:39:19.699Z,39.67
2018-03-07T18:41:47.551Z,39.33
2018-03-07T18:44:15.501Z,39.60
2018-03-07T18:46:43.347Z,40.23
2018-03-07T18:49:11.192Z,40.07
2018-03-07T18:51:39.162Z,37.67
2018-03-07T18:54:07.174Z,38.53
2018-03-07T18:56:35.129Z,40.17
2018-03-07T18:59:03.103Z,38.13
2018-03-07T19:01:30.988Z,38.80
2018-03-07T19:03:59.716Z,39.47
2018-03-07T19:06:27.605Z,39.00
2018-03-07T19:08:55.551Z,38.50
2018-03-07T19:11:23.440Z,35.30
2018-03-07T19:13:51.320Z,40.10
2018-03-07T19:16:19.202Z,37.33
2018-03-07T19:18:47.128Z,38.20
2018-03-07T19:21:15.121Z,37.97
2018-03-07T19:23:43.032Z,39.70
2018-03-07T19:26:10.963Z,37.80
2018-03-07T19:28:38.903Z,36.93
2018-03-07T19:31:06.844Z,36.00
2018-03-07T19:33:34.878Z,39.87
2018-03-07T19:36:02.934Z,39.00
2018-03-07T19:38:30.844Z,38.90
2018-03-07T19:40:58.780Z,38.50
2018-03-07T19:43:26.867Z,41.63
2018-03-07T19:45:54.800Z,39.57
2018-03-07T19:48:22.689Z,39.97
2018-03-07T19:50:50.630Z,41.43
2018-03-07T19:53:18.585Z,49.53
2018-03-07T19:55:46.516Z,43.37
2018-03-07T19:58:14.762Z,45.50
2018-03-07T20:00:42.640Z,64.17
2018-03-07T20:03:10.872Z,58.77
2018-03-07T20:05:38.979Z,51.43
2018-03-07T20:08:06.975Z,42.70
2018-03-07T20:10:34.993Z,51.93
2018-03-07T20:13:02.861Z,49.10
2018-03-07T20:15:30.805Z,46.90
2018-03-07T20:17:58.662Z,44.13
2018-03-07T20:20:26.594Z,48.63
2018-03-07T20:22:54.689Z,49.30
2018-03-07T20:25:22.672Z,51.53
2018-03-07T20:27:50.879Z,48.97
2018-03-07T20:30:18.958Z,48.87
2018-03-07T20:32:47.180Z,46.00
2018-03-07T20:35:15.221Z,47.57
2018-03-07T20:37:43.196Z,46.30
2018-03-07T20:40:14.442Z,43.70
2018-03-07T20:42:42.449Z,45.50
2018-03-07T20:45:10.439Z,47.80
2018-03-07T20:47:38.393Z,50.23
2018-03-07T20:50:06.349Z,46.77
2018-03-07T20:52:34.298Z,48.00
2018-03-07T20:55:02.362Z,48.30
2018-03-07T20:57:30.214Z,47.33
2018-03-07T20:59:58.100Z,48.10
2018-03-07T21:02:26.027Z,47.57
2018-03-07T21:04:53.915Z,45.80
2018-03-07T21:07:21.999Z,44.50
2018-03-07T21:09:49.919Z,42.50
2018-03-07T21:12:17.851Z,43.07
2018-03-07T21:14:45.745Z,43.90
2018-03-07T21:17:13.815Z,43.40
2018-03-07T21:19:41.737Z,43.10
2018-03-07T21:22:09.662Z,44.83
2018-03-07T21:24:37.655Z,41.80
2018-03-07T21:27:05.537Z,44.73
2018-03-07T21:29:33.874Z,47.37
2018-03-07T21:32:02.045Z,53.67
2018-03-07T21:34:30.092Z,60.20
2018-03-07T21:36:57.987Z,59.97
2018-03-07T21:39:25.868Z,66.00
2018-03-07T21:41:53.755Z,52.80
2018-03-07T21:44:21.681Z,63.63
2018-03-07T21:46:49.588Z,102.43
2018-03-07T21:49:17.792Z,57.90
2018-03-07T21:51:46.090Z,72.07
2018-03-07T21:54:14.099Z,80.77
2018-03-07T21:56:41.984Z,79.10
2018-03-07T21:59:09.932Z,72.87
2018-03-07T22:01:37.873Z,116.53
2018-03-07T22:04:05.775Z,77.13
2018-03-07T22:06:34.033Z,58.17
2018-03-07T22:09:01.934Z,76.80
2018-03-07T22:11:29.813Z,48.00
2018-03-07T22:13:57.683Z,57.17
2018-03-07T22:16:25.601Z,81.07
2018-03-07T22:18:53.513Z,71.67
2018-03-07T22:21:21.436Z,55.27
2018-03-07T22:23:49.286Z,81.83
2018-03-07T22:26:17.304Z,68.67
2018-03-07T22:28:45.200Z,57.17
2018-03-07T22:31:13.149Z,62.13
2018-03-07T22:33:41.031Z,55.00
2018-03-07T22:36:08.930Z,57.67
2018-03-07T22:38:37.154Z,59.70
2018-03-07T22:41:05.120Z,53.63
2018-03-07T22:43:33.123Z,52.17
2018-03-07T22:46:01.016Z,51.90
2018-03-07T22:48:28.875Z,55.83
2018-03-07T22:50:56.718Z,52.80
2018-03-07T22:53:24.607Z,56.63
2018-03-07T22:55:52.480Z,55.83
2018-03-07T22:58:20.335Z,49.53
2018-03-07T23:00:48.299Z,53.73
2018-03-07T23:03:16.159Z,53.77
2018-03-07T23:05:44.017Z,51.50
2018-03-07T23:08:12.134Z,56.20
2018-03-07T23:10:40.612Z,58.10
2018-03-07T23:13:08.580Z,58.30
2018-03-07T23:15:36.683Z,56.23
2018-03-07T23:18:04.592Z,53.77
2018-03-07T23:20:32.580Z,57.27
2018-03-07T23:23:00.506Z,51.17
2018-03-07T23:25:28.360Z,52.57
2018-03-07T23:27:56.202Z,55.03
2018-03-07T23:30:24.072Z,53.50
2018-03-07T23:32:51.927Z,54.17
2018-03-07T23:35:19.850Z,52.90
2018-03-07T23:37:47.695Z,50.43
2018-03-07T23:40:15.749Z,52.23
2018-03-07T23:42:43.659Z,52.27
2018-03-07T23:45:11.568Z,52.50
2018-03-07T23:47:39.632Z,52.20
2018-03-07T23:50:07.519Z,51.57
2018-03-07T23:52:35.401Z,53.50
2018-03-07T23:55:03.310Z,53.70
2018-03-07T23:57:31.343Z,52.70
2018-03-07T23:59:59.440Z,53.37
